createdAt,value
2019-04-04T00:01:21.669Z,3.90
2019-04-04T00:03:54.734Z,3.90
2019-04-04T00:06:27.087Z,3.83
2019-04-04T00:09:00.015Z,3.92
2019-04-04T00:11:30.920Z,4.03
2019-04-04T00:14:01.497Z,3.70
2019-04-04T00:16:32.969Z,3.80
2019-04-04T00:19:04.983Z,3.77
2019-04-04T00:21:35.787Z,4.93
2019-04-04T00:24:07.076Z,5.10
2019-04-04T00:26:41.667Z,4.80
2019-04-04T00:29:11.245Z,5.03
2019-04-04T00:31:42.352Z,4.83
2019-04-04T00:34:13.835Z,6.10
2019-04-04T00:36:44.480Z,3.85
2019-04-04T00:39:15.765Z,4.43
2019-04-04T00:41:49.612Z,4.00
2019-04-04T00:44:22.729Z,3.98
2019-04-04T00:46:53.097Z,3.85
2019-04-04T00:49:26.514Z,3.72
2019-04-04T00:51:57.490Z,3.80
2019-04-04T00:54:29.089Z,3.53
2019-04-04T00:57:00.040Z,4.10
2019-04-04T00:59:30.671Z,3.60
2019-04-04T01:02:02.104Z,3.83
2019-04-04T01:04:32.826Z,3.77
2019-04-04T01:07:05.083Z,3.93
2019-04-04T01:09:38.716Z,3.70
2019-04-04T01:12:09.333Z,3.67
2019-04-04T01:14:40.082Z,4.17
2019-04-04T01:17:12.678Z,3.98
2019-04-04T01:19:43.207Z,4.22
2019-04-04T01:22:13.900Z,3.98
2019-04-04T01:24:45.642Z,3.80
2019-04-04T01:27:16.599Z,3.80
2019-04-04T01:29:47.641Z,3.95
2019-04-04T01:32:21.524Z,3.72
2019-04-04T01:34:52.752Z,4.47
2019-04-04T01:37:27.067Z,3.62
2019-04-04T01:39:57.466Z,3.80
2019-04-04T01:42:27.938Z,4.10
2019-04-04T01:45:01.096Z,3.92
2019-04-04T01:47:32.157Z,3.83
2019-04-04T01:50:02.602Z,3.90
2019-04-04T01:52:34.018Z,3.60
2019-04-04T01:55:04.989Z,3.40
2019-04-04T01:57:38.548Z,4.05
2019-04-04T02:00:09.544Z,3.92
2019-04-04T02:02:40.755Z,3.90
2019-04-04T02:05:12.000Z,4.13
2019-04-04T02:07:42.712Z,4.10
2019-04-04T02:10:14.093Z,4.05
2019-04-04T02:12:44.594Z,3.58
2019-04-04T02:15:15.232Z,3.87
2019-04-04T02:17:45.672Z,4.25
2019-04-04T02:20:16.532Z,3.70
2019-04-04T02:22:47.485Z,3.80
2019-04-04T02:25:18.111Z,3.80
2019-04-04T02:27:49.211Z,4.08
2019-04-04T02:30:19.906Z,3.80
2019-04-04T02:32:50.522Z,4.30
2019-04-04T02:35:21.067Z,4.20
2019-04-04T02:37:54.947Z,3.90
2019-04-04T02:40:24.324Z,4.10
2019-04-04T02:42:55.610Z,3.72
2019-04-04T02:45:26.857Z,4.05
2019-04-04T02:47:57.777Z,4.12
2019-04-04T02:50:28.467Z,3.77
2019-04-04T02:52:59.652Z,4.00
2019-04-04T02:55:31.177Z,4.65
2019-04-04T02:58:01.999Z,4.28
2019-04-04T03:00:33.114Z,4.15
2019-04-04T03:03:08.162Z,4.37
2019-04-04T03:05:36.168Z,4.25
2019-04-04T03:08:08.065Z,4.43
2019-04-04T03:10:38.621Z,4.25
2019-04-04T03:13:09.433Z,4.62
2019-04-04T03:15:41.471Z,4.30
2019-04-04T03:18:12.705Z,4.92
2019-04-04T03:20:43.426Z,4.47
2019-04-04T03:23:14.020Z,4.40
2019-04-04T03:25:44.649Z,5.17
2019-04-04T03:28:17.347Z,4.27
2019-04-04T03:31:01.265Z,7.75
2019-04-04T03:33:29.322Z,9.80
2019-04-04T03:36:01.009Z,6.78
2019-04-04T03:38:30.660Z,5.03
2019-04-04T03:41:01.597Z,4.73
2019-04-04T03:43:34.790Z,4.87
2019-04-04T03:46:05.602Z,4.92
2019-04-04T03:48:42.424Z,4.92
2019-04-04T03:51:12.989Z,5.27
2019-04-04T03:53:49.268Z,6.08
2019-04-04T03:56:20.831Z,6.07
2019-04-04T03:58:51.348Z,7.58
2019-04-04T04:01:24.801Z,7.17
2019-04-04T04:03:55.943Z,6.53
2019-04-04T04:06:26.431Z,6.42
2019-04-04T04:08:58.362Z,7.17
2019-04-04T04:11:29.238Z,6.72
2019-04-04T04:14:00.081Z,5.58
2019-04-04T04:16:37.274Z,7.62
2019-04-04T04:19:08.697Z,6.05
2019-04-04T04:21:42.731Z,5.83
2019-04-04T04:24:13.430Z,5.60
2019-04-04T04:26:44.864Z,7.57
2019-04-04T04:29:15.388Z,5.42
2019-04-04T04:31:49.202Z,5.58
2019-04-04T04:34:18.818Z,5.30
2019-04-04T04:36:50.285Z,5.50
2019-04-04T04:39:21.299Z,7.70
2019-04-04T04:41:54.133Z,6.95
2019-04-04T04:44:24.701Z,5.55
2019-04-04T04:46:56.201Z,6.15
2019-04-04T04:49:27.628Z,5.50
2019-04-04T04:51:58.160Z,6.92
2019-04-04T04:54:29.408Z,6.33
2019-04-04T04:57:03.935Z,6.08
2019-04-04T04:59:35.375Z,6.90
2019-04-04T05:02:06.484Z,6.35
2019-04-04T05:04:39.762Z,6.15
2019-04-04T05:07:10.331Z,6.17
2019-04-04T05:09:45.123Z,5.90
2019-04-04T05:12:21.648Z,10.75
2019-04-04T05:14:52.563Z,6.58
2019-04-04T05:17:23.264Z,6.12
2019-04-04T05:19:53.976Z,6.35
2019-04-04T05:22:24.583Z,6.73
2019-04-04T05:25:07.988Z,7.20
2019-04-04T05:27:27.694Z,6.60
2019-04-04T05:29:58.893Z,7.10
2019-04-04T05:32:29.917Z,7.45
2019-04-04T05:35:01.230Z,9.30
2019-04-04T05:37:32.455Z,6.72
2019-04-04T05:40:03.292Z,6.10
2019-04-04T05:42:38.383Z,6.78
2019-04-04T05:45:09.351Z,7.85
2019-04-04T05:47:40.713Z,5.83
2019-04-04T05:50:12.107Z,6.47
2019-04-04T05:52:43.847Z,6.40
2019-04-04T05:55:14.784Z,6.72
2019-04-04T05:57:45.306Z,5.53
2019-04-04T06:00:16.205Z,6.57
2019-04-04T06:02:47.540Z,14.23
2019-04-04T06:05:27.209Z,7.50
2019-04-04T06:08:08.263Z,6.55
2019-04-04T06:10:42.507Z,6.42
2019-04-04T06:13:22.071Z,9.25
2019-04-04T06:15:56.999Z,8.30
2019-04-04T06:18:28.437Z,6.87
2019-04-04T06:20:58.979Z,8.98
2019-04-04T06:23:29.893Z,7.75
2019-04-04T06:26:01.042Z,6.70
2019-04-04T06:28:36.324Z,7.08
2019-04-04T06:31:08.254Z,6.62
2019-04-04T06:33:39.331Z,6.83
2019-04-04T06:36:10.465Z,6.12
2019-04-04T06:38:41.299Z,6.50
2019-04-04T06:41:13.388Z,7.50
2019-04-04T06:43:44.340Z,7.40
2019-04-04T06:46:28.448Z,6.10
2019-04-04T06:49:03.942Z,6.50
2019-04-04T06:51:33.610Z,7.55
2019-04-04T06:54:05.497Z,6.65
2019-04-04T06:56:36.612Z,7.35
2019-04-04T06:59:11.089Z,7.07
2019-04-04T07:01:39.650Z,7.37
2019-04-04T07:04:11.519Z,7.62
2019-04-04T07:06:44.012Z,7.60
2019-04-04T07:09:18.081Z,8.10
2019-04-04T07:11:47.776Z,7.50
2019-04-04T07:14:18.331Z,7.08
2019-04-04T07:16:49.617Z,7.20
2019-04-04T07:19:20.709Z,7.72
2019-04-04T07:21:51.455Z,7.00
2019-04-04T07:24:23.365Z,8.40
2019-04-04T07:26:54.596Z,8.60
2019-04-04T07:29:28.293Z,7.10
2019-04-04T07:31:59.955Z,8.93
2019-04-04T07:34:30.590Z,6.77
2019-04-04T07:37:01.782Z,7.37
2019-04-04T07:39:32.903Z,7.30
2019-04-04T07:42:06.891Z,8.20
2019-04-04T07:44:41.132Z,8.03
2019-04-04T07:47:15.766Z,9.10
2019-04-04T07:49:46.487Z,7.10
2019-04-04T07:52:32.717Z,7.35
2019-04-04T07:55:11.020Z,6.90
2019-04-04T07:57:44.920Z,6.42
2019-04-04T08:00:16.421Z,7.80
2019-04-04T08:02:47.478Z,6.97
2019-04-04T08:05:19.326Z,7.40
2019-04-04T08:07:50.227Z,8.20
2019-04-04T08:10:21.263Z,7.08
2019-04-04T08:12:51.986Z,6.83
2019-04-04T08:15:32.221Z,6.70
2019-04-04T08:18:05.089Z,7.20
2019-04-04T08:20:36.455Z,6.50
2019-04-04T08:23:09.556Z,8.38
2019-04-04T08:25:41.668Z,7.17
2019-04-04T08:28:12.274Z,8.28
2019-04-04T08:30:43.601Z,7.05
2019-04-04T08:33:14.265Z,6.65
2019-04-04T08:35:45.336Z,6.45
2019-04-04T08:38:15.902Z,7.33
2019-04-04T08:40:46.830Z,7.05
2019-04-04T08:43:17.407Z,6.55
2019-04-04T08:45:47.940Z,6.40
2019-04-04T08:48:19.271Z,6.67
2019-04-04T08:50:50.442Z,6.62
2019-04-04T08:53:21.790Z,6.87
2019-04-04T08:55:52.406Z,7.40
2019-04-04T08:58:22.969Z,6.87
2019-04-04T09:00:54.356Z,9.53
2019-04-04T09:03:25.461Z,7.80
2019-04-04T09:05:58.611Z,7.00
2019-04-04T09:08:30.825Z,6.80
2019-04-04T09:11:01.337Z,6.33
2019-04-04T09:13:31.879Z,6.95
2019-04-04T09:16:02.528Z,7.05
2019-04-04T09:18:33.147Z,6.60
2019-04-04T09:21:04.140Z,7.00
2019-04-04T09:23:37.845Z,7.28
2019-04-04T09:26:08.337Z,6.90
2019-04-04T09:28:39.304Z,6.92
2019-04-04T09:31:09.964Z,6.33
2019-04-04T09:33:41.076Z,6.70
2019-04-04T09:36:11.643Z,7.70
2019-04-04T09:38:42.369Z,6.90
2019-04-04T09:41:13.324Z,7.13
2019-04-04T09:43:44.813Z,7.33
2019-04-04T09:46:16.435Z,6.10
2019-04-04T09:48:47.076Z,5.60
2019-04-04T09:51:17.584Z,6.67
2019-04-04T09:53:53.253Z,5.75
2019-04-04T09:56:20.575Z,5.17
2019-04-04T09:58:55.013Z,5.80
2019-04-04T10:01:37.279Z,5.85
2019-04-04T10:04:08.946Z,4.65
2019-04-04T10:06:40.096Z,4.87
2019-04-04T10:09:15.857Z,5.58
2019-04-04T10:11:42.937Z,6.03
2019-04-04T10:14:14.228Z,4.20
2019-04-04T10:16:45.188Z,4.80
2019-04-04T10:19:16.460Z,4.90
2019-04-04T10:21:47.096Z,4.67
2019-04-04T10:24:17.711Z,4.83
2019-04-04T10:26:50.531Z,5.80
2019-04-04T10:29:20.881Z,5.78
2019-04-04T10:31:51.418Z,5.80
2019-04-04T10:34:22.729Z,4.92
2019-04-04T10:36:54.069Z,5.45
2019-04-04T10:39:29.333Z,5.53
2019-04-04T10:41:56.781Z,5.23
2019-04-04T10:44:27.508Z,5.62
2019-04-04T10:46:58.160Z,5.40
2019-04-04T10:49:29.385Z,4.97
2019-04-04T10:52:00.129Z,5.20
2019-04-04T10:54:30.746Z,5.92
2019-04-04T10:57:01.752Z,5.30
2019-04-04T10:59:32.704Z,5.13
2019-04-04T11:02:03.254Z,5.10
2019-04-04T11:04:34.509Z,5.85
2019-04-04T11:07:05.434Z,6.30
2019-04-04T11:09:42.158Z,5.35
2019-04-04T11:12:08.946Z,4.80
2019-04-04T11:14:39.519Z,4.90
2019-04-04T11:17:10.291Z,6.05
2019-04-04T11:19:43.502Z,4.50
2019-04-04T11:22:14.089Z,4.97
2019-04-04T11:24:44.724Z,4.60
2019-04-04T11:27:17.519Z,5.30
2019-04-04T11:29:47.979Z,6.03
2019-04-04T11:32:18.528Z,6.15
2019-04-04T11:34:53.402Z,5.45
2019-04-04T11:37:22.078Z,5.30
2019-04-04T11:39:54.868Z,6.25
2019-04-04T11:42:25.655Z,6.08
2019-04-04T11:44:56.850Z,5.22
2019-04-04T11:47:27.623Z,5.50
2019-04-04T11:50:06.897Z,5.00
2019-04-04T11:52:40.223Z,5.12
2019-04-04T11:55:10.946Z,6.40
2019-04-04T11:57:42.222Z,5.55
2019-04-04T12:00:17.398Z,5.08
2019-04-04T12:02:50.087Z,5.65
2019-04-04T12:05:22.526Z,6.37
2019-04-04T12:07:53.482Z,5.83
2019-04-04T12:10:25.014Z,5.35
2019-04-04T12:12:58.428Z,5.15
2019-04-04T12:15:31.430Z,6.08
2019-04-04T12:18:15.335Z,6.50
2019-04-04T12:20:47.772Z,5.60
2019-04-04T12:23:20.676Z,5.65
2019-04-04T12:25:52.602Z,5.77
2019-04-04T12:28:24.896Z,6.60
2019-04-04T12:30:57.206Z,5.70
2019-04-04T12:33:28.502Z,5.20
2019-04-04T12:36:00.821Z,5.28
2019-04-04T12:38:46.622Z,6.47
2019-04-04T12:41:18.427Z,6.43
2019-04-04T12:43:50.655Z,5.85
2019-04-04T12:46:22.362Z,5.78
2019-04-04T12:48:53.138Z,5.47
2019-04-04T12:51:24.613Z,5.00
2019-04-04T12:53:55.337Z,4.80
2019-04-04T12:56:26.556Z,5.28
2019-04-04T12:58:57.906Z,5.85
2019-04-04T13:01:29.474Z,5.45
2019-04-04T13:04:01.308Z,5.30
2019-04-04T13:06:32.399Z,5.10
2019-04-04T13:09:06.766Z,4.25
2019-04-04T13:11:37.761Z,4.40
2019-04-04T13:14:08.327Z,4.12
2019-04-04T13:16:39.805Z,4.97
2019-04-04T13:19:12.912Z,5.03
2019-04-04T13:21:43.868Z,4.90
2019-04-04T13:24:14.963Z,5.35
2019-04-04T13:26:45.912Z,4.50
2019-04-04T13:29:16.484Z,4.85
2019-04-04T13:31:47.407Z,4.97
2019-04-04T13:34:24.175Z,5.30
2019-04-04T13:36:54.936Z,5.80
2019-04-04T13:39:25.533Z,5.00
2019-04-04T13:41:56.134Z,5.50
2019-04-04T13:44:36.983Z,5.87
2019-04-04T13:47:07.516Z,5.47
2019-04-04T13:49:43.989Z,5.92
2019-04-04T13:52:26.433Z,5.35
2019-04-04T13:55:08.841Z,5.95
2019-04-04T13:57:40.751Z,6.53
2019-04-04T14:00:12.900Z,6.43
2019-04-04T14:02:43.416Z,5.62
2019-04-04T14:05:14.832Z,7.40
2019-04-04T14:07:46.054Z,5.80
2019-04-04T14:10:17.398Z,6.10
2019-04-04T14:12:49.167Z,5.78
2019-04-04T14:15:19.863Z,6.20
2019-04-04T14:17:50.703Z,6.37
2019-04-04T14:20:24.203Z,5.80
2019-04-04T14:22:55.906Z,6.00
2019-04-04T14:25:29.319Z,5.00
2019-04-04T14:27:58.937Z,5.22
2019-04-04T14:30:31.769Z,5.45
2019-04-04T14:33:04.391Z,6.65
2019-04-04T14:35:34.996Z,5.40
2019-04-04T14:38:06.232Z,5.05
2019-04-04T14:40:36.776Z,5.23
2019-04-04T14:43:13.202Z,4.90
2019-04-04T14:45:45.190Z,5.50
2019-04-04T14:48:18.212Z,4.92
2019-04-04T14:50:49.425Z,6.33
2019-04-04T14:53:20.212Z,5.53
2019-04-04T14:55:50.922Z,6.05
2019-04-04T14:58:21.595Z,5.93
2019-04-04T15:00:52.136Z,4.55
2019-04-04T15:03:22.674Z,5.15
2019-04-04T15:05:53.220Z,4.45
2019-04-04T15:08:23.730Z,5.08
2019-04-04T15:10:56.896Z,4.67
2019-04-04T15:13:30.509Z,4.67
2019-04-04T15:16:14.328Z,4.90
2019-04-04T15:18:47.017Z,7.65
2019-04-04T15:21:29.948Z,4.15
2019-04-04T15:25:10.043Z,4.50
2019-04-04T15:28:26.253Z,5.03
2019-04-04T15:57:46.676Z,4.20
2019-04-04T16:00:38.971Z,4.90
2019-04-04T16:04:18.852Z,5.17
2019-04-04T16:27:49.688Z,7.00
2019-04-04T16:38:15.785Z,7.55
2019-04-04T16:40:48.813Z,6.70
2019-04-04T16:43:19.825Z,6.40
2019-04-04T16:45:50.889Z,6.35
2019-04-04T16:48:21.644Z,6.50
2019-04-04T16:50:52.675Z,5.97
2019-04-04T16:53:23.444Z,6.47
2019-04-04T16:55:54.563Z,6.75
2019-04-04T16:58:25.316Z,7.03
2019-04-04T17:00:56.178Z,6.62
2019-04-04T17:03:26.792Z,5.87
2019-04-04T17:05:57.406Z,6.12
2019-04-04T17:08:28.368Z,5.87
2019-04-04T17:10:59.338Z,6.90
2019-04-04T17:13:30.237Z,5.95
2019-04-04T17:16:00.757Z,5.30
2019-04-04T17:18:32.420Z,5.03
2019-04-04T17:21:02.901Z,5.10
2019-04-04T17:23:33.880Z,5.10
2019-04-04T17:26:04.866Z,5.95
2019-04-04T17:28:35.377Z,5.95
2019-04-04T17:31:08.299Z,6.30
2019-04-04T17:33:42.413Z,6.03
2019-04-04T17:36:14.335Z,6.40
2019-04-04T17:38:44.904Z,6.73
2019-04-04T17:41:15.425Z,6.10
2019-04-04T17:43:48.468Z,5.40
2019-04-04T17:46:18.957Z,5.83
2019-04-04T17:48:49.846Z,4.87
2019-04-04T17:51:22.080Z,5.28
2019-04-04T17:53:53.658Z,5.03
2019-04-04T17:56:24.335Z,5.72
2019-04-04T17:58:55.264Z,5.80
2019-04-04T18:01:26.221Z,6.67
2019-04-04T18:04:03.160Z,7.28
2019-04-04T18:06:34.202Z,7.83
2019-04-04T18:09:08.300Z,7.10
2019-04-04T18:11:38.815Z,6.60
2019-04-04T18:14:09.704Z,7.00
2019-04-04T18:16:40.177Z,6.30
2019-04-04T18:19:12.528Z,7.03
2019-04-04T18:21:43.426Z,6.78
2019-04-04T18:24:14.447Z,8.03
2019-04-04T18:26:47.877Z,8.43
2019-04-04T18:29:20.390Z,7.65
2019-04-04T18:31:51.922Z,8.23
2019-04-04T18:34:23.370Z,7.40
2019-04-04T18:36:54.654Z,8.40
2019-04-04T18:39:27.879Z,8.98
2019-04-04T18:41:59.203Z,8.35
2019-04-04T18:44:30.538Z,8.03
2019-04-04T18:47:01.081Z,8.58
2019-04-04T18:49:31.803Z,9.78
2019-04-04T18:52:03.188Z,8.70
2019-04-04T18:54:34.720Z,11.50
2019-04-04T18:57:05.459Z,9.53
2019-04-04T18:59:36.718Z,9.13
2019-04-04T19:02:14.511Z,10.40
2019-04-04T19:04:45.565Z,14.73
2019-04-04T19:07:17.944Z,15.50
2019-04-04T19:09:49.418Z,16.90
2019-04-04T19:12:21.196Z,17.23
2019-04-04T19:14:52.339Z,17.32
2019-04-04T19:17:24.145Z,17.98
2019-04-04T19:19:54.807Z,16.70
2019-04-04T19:22:35.668Z,18.00
2019-04-04T19:25:09.743Z,16.50
2019-04-04T19:27:40.627Z,17.42
2019-04-04T19:30:12.186Z,16.62
2019-04-04T19:32:42.878Z,17.10
2019-04-04T19:35:14.218Z,17.00
2019-04-04T19:37:45.269Z,18.57
2019-04-04T19:40:23.529Z,22.67
2019-04-04T19:42:54.180Z,16.00
2019-04-04T19:45:24.855Z,16.42
2019-04-04T19:47:56.444Z,16.62
2019-04-04T19:50:27.644Z,18.23
2019-04-04T19:52:58.596Z,16.70
2019-04-04T19:55:29.119Z,16.45
2019-04-04T19:57:59.743Z,15.80
2019-04-04T20:00:32.510Z,18.10
2019-04-04T20:03:03.204Z,17.42
2019-04-04T20:05:34.068Z,16.00
2019-04-04T20:08:05.322Z,15.20
2019-04-04T20:10:37.267Z,17.25
2019-04-04T20:13:08.261Z,19.17
2019-04-04T20:15:41.305Z,16.23
2019-04-04T20:18:12.334Z,16.02
2019-04-04T20:20:43.642Z,21.85
2019-04-04T20:23:14.392Z,15.58
2019-04-04T20:25:45.989Z,14.25
2019-04-04T20:28:17.016Z,14.85
2019-04-04T20:30:52.446Z,16.70
2019-04-04T20:33:33.699Z,17.05
2019-04-04T20:36:04.890Z,14.60
2019-04-04T20:38:39.934Z,15.48
2019-04-04T20:41:10.868Z,14.18
2019-04-04T20:43:43.606Z,14.13
2019-04-04T20:46:14.955Z,13.90
2019-04-04T20:48:45.848Z,14.53
2019-04-04T20:51:17.227Z,13.78
2019-04-04T20:53:48.654Z,13.55
2019-04-04T20:56:19.277Z,13.80
2019-04-04T20:58:49.846Z,13.97
2019-04-04T21:01:23.203Z,15.00
2019-04-04T21:03:53.806Z,13.75
2019-04-04T21:06:24.331Z,14.33
2019-04-04T21:08:56.535Z,13.50
2019-04-04T21:11:27.686Z,13.58
2019-04-04T21:13:58.564Z,13.88
2019-04-04T21:16:34.339Z,13.57
2019-04-04T21:19:05.260Z,14.23
2019-04-04T21:21:42.544Z,13.75
2019-04-04T21:24:13.097Z,13.78
2019-04-04T21:26:43.675Z,14.23
2019-04-04T21:29:15.351Z,13.53
2019-04-04T21:31:46.372Z,14.40
2019-04-04T21:34:20.890Z,13.93
2019-04-04T21:36:51.516Z,13.53
2019-04-04T21:39:22.989Z,13.55
2019-04-04T21:41:55.718Z,13.70
2019-04-04T21:44:26.204Z,13.83
2019-04-04T21:46:56.835Z,13.30
2019-04-04T21:49:30.736Z,13.62
2019-04-04T21:52:01.430Z,13.75
2019-04-04T21:54:33.371Z,13.40
2019-04-04T21:57:04.046Z,12.90
2019-04-04T21:59:35.122Z,12.65
2019-04-04T22:02:07.299Z,13.28
2019-04-04T22:04:38.781Z,13.85
2019-04-04T22:07:09.923Z,13.55
2019-04-04T22:09:40.610Z,13.43
2019-04-04T22:12:11.249Z,13.60
2019-04-04T22:14:44.088Z,13.68
2019-04-04T22:17:15.117Z,14.25
2019-04-04T22:19:46.122Z,13.53
2019-04-04T22:22:16.996Z,14.30
2019-04-04T22:24:50.323Z,13.72
2019-04-04T22:27:20.576Z,14.23
2019-04-04T22:29:52.254Z,13.55
2019-04-04T22:32:27.505Z,14.07
2019-04-04T22:35:00.531Z,13.83
2019-04-04T22:37:31.550Z,13.30
2019-04-04T22:40:03.258Z,13.98
2019-04-04T22:42:38.055Z,13.73
2019-04-04T22:45:12.407Z,14.28
2019-04-04T22:47:47.211Z,13.88
2019-04-04T22:50:18.714Z,13.62
2019-04-04T22:52:49.735Z,13.90
2019-04-04T22:55:20.431Z,13.85
2019-04-04T22:57:50.998Z,14.87
2019-04-04T23:00:21.923Z,13.95
2019-04-04T23:02:55.016Z,13.77
2019-04-04T23:05:25.875Z,14.18
2019-04-04T23:07:56.502Z,13.22
2019-04-04T23:10:29.586Z,13.77
2019-04-04T23:13:00.295Z,13.98
2019-04-04T23:15:30.801Z,13.38
2019-04-04T23:18:01.581Z,13.35
2019-04-04T23:20:32.619Z,13.80
2019-04-04T23:23:03.276Z,14.17
2019-04-04T23:25:37.001Z,13.72
2019-04-04T23:28:07.914Z,13.77
2019-04-04T23:30:38.731Z,14.25
2019-04-04T23:33:11.368Z,14.47
2019-04-04T23:35:41.986Z,13.95
2019-04-04T23:38:13.004Z,13.93
2019-04-04T23:40:44.696Z,14.27
2019-04-04T23:43:15.876Z,14.53
2019-04-04T23:45:48.842Z,13.80
2019-04-04T23:48:20.570Z,14.95
2019-04-04T23:50:52.839Z,14.17
2019-04-04T23:53:25.968Z,14.40
2019-04-04T23:55:56.452Z,14.45
2019-04-04T23:58:27.053Z,13.28
